Time;durP1;ratioP1;P1;durP2;ratioP2;P2;SDS_P1;SDS_P2;PMS_P1;PMS_P2;Temp;Humidity;BMP_temperature;BMP_pressure;BME280_temperature;BME280_humidity;BME280_pressure;Samples;Min_cycle;Max_cycle;Signal;HPM_P1;HPM_P2
2021/04/17 00:02:05;;;;;;;14.18;5.20;;;;;;;3.78;100.00;102696.50;5163302;28;20037;-78
2021/04/17 00:04:38;;;;;;;13.82;4.20;;;;;;;3.71;100.00;102690.63;5163431;28;20077;-78
2021/04/17 00:07:11;;;;;;;8.77;3.33;;;;;;;3.72;100.00;102681.75;5163153;28;20037;-79
2021/04/17 00:09:42;;;;;;;8.77;3.70;;;;;;;3.76;100.00;102679.78;5162630;28;20085;-78
2021/04/17 00:12:16;;;;;;;8.02;3.88;;;;;;;3.76;100.00;102693.06;5163291;28;20026;-78
2021/04/17 00:14:49;;;;;;;10.00;3.83;;;;;;;3.75;100.00;102689.53;5163251;28;20033;-78
2021/04/17 00:17:20;;;;;;;12.18;3.45;;;;;;;3.64;100.00;102692.75;5163108;28;20044;-78
2021/04/17 00:19:53;;;;;;;11.80;4.32;;;;;;;3.61;100.00;102689.38;5162684;28;20018;-78
2021/04/17 00:22:23;;;;;;;9.90;3.78;;;;;;;3.63;100.00;102698.13;5162591;28;20022;-78
2021/04/17 00:24:54;;;;;;;14.32;4.10;;;;;;;3.66;100.00;102697.09;5163104;28;20439;-78
2021/04/17 00:27:25;;;;;;;15.50;4.13;;;;;;;3.57;100.00;102687.81;5157136;28;20038;-78
2021/04/17 00:29:56;;;;;;;9.77;3.88;;;;;;;3.55;100.00;102697.63;5162769;28;20030;-78
2021/04/17 00:32:26;;;;;;;8.77;3.63;;;;;;;3.52;100.00;102693.38;5162452;28;20040;-78
2021/04/17 00:34:57;;;;;;;9.02;4.20;;;;;;;3.52;100.00;102687.19;5162035;28;20049;-77
2021/04/17 00:37:27;;;;;;;12.45;3.97;;;;;;;3.48;100.00;102683.81;5163078;28;20436;-78
2021/04/17 00:39:58;;;;;;;15.40;4.38;;;;;;;3.45;100.00;102677.81;5162963;28;20029;-77
2021/04/17 00:42:28;;;;;;;12.18;4.50;;;;;;;3.42;100.00;102686.78;5162754;28;20057;-77
2021/04/17 00:44:58;;;;;;;12.88;4.40;;;;;;;3.46;100.00;102682.16;5162490;28;20034;-78
2021/04/17 00:47:29;;;;;;;10.32;4.20;;;;;;;3.42;100.00;102683.28;5162936;28;20022;-77
2021/04/17 00:50:00;;;;;;;9.13;3.95;;;;;;;3.34;100.00;102679.19;5161347;28;20751;-77
2021/04/17 00:52:31;;;;;;;10.65;4.10;;;;;;;3.31;100.00;102681.13;5162634;28;20046;-78
2021/04/17 00:55:03;;;;;;;10.52;3.40;;;;;;;3.26;100.00;102684.03;5165309;28;20026;-77
2021/04/17 00:57:33;;;;;;;11.18;4.18;;;;;;;3.31;100.00;102684.66;5166260;28;20075;-79
2021/04/17 01:00:07;;;;;;;7.60;3.78;;;;;;;3.32;100.00;102677.56;5166154;28;20423;-78
2021/04/17 01:02:47;;;;;;;9.40;4.82;;;;;;;3.24;100.00;102682.38;5166654;28;20045;-78
2021/04/17 01:05:19;;;;;;;11.60;4.20;;;;;;;3.20;100.00;102683.44;5167282;28;20696;-78
2021/04/17 01:07:51;;;;;;;15.25;4.20;;;;;;;3.20;100.00;102679.00;5166479;28;20069;-78
2021/04/17 01:10:30;;;;;;;10.40;3.90;;;;;;;3.14;100.00;102679.28;5166505;28;20088;-78
2021/04/17 01:13:01;;;;;;;7.53;3.50;;;;;;;3.10;100.00;102683.88;5166200;28;20479;-78
2021/04/17 01:15:33;;;;;;;11.50;3.75;;;;;;;3.03;100.00;102679.81;5167109;28;20539;-79
2021/04/17 01:18:06;;;;;;;10.93;4.38;;;;;;;3.03;100.00;102681.59;5166161;28;20029;-78
2021/04/17 01:20:41;;;;;;;7.75;3.78;;;;;;;3.04;100.00;102670.06;5166033;28;20033;-78
2021/04/17 01:23:18;;;;;;;12.25;3.85;;;;;;;2.97;100.00;102676.59;5165796;28;20026;-78
2021/04/17 01:25:59;;;;;;;11.00;4.78;;;;;;;2.97;100.00;102671.28;5163175;28;20034;-77
2021/04/17 01:28:35;;;;;;;14.43;4.68;;;;;;;2.93;100.00;102672.38;5157036;28;20515;-78
2021/04/17 01:31:08;;;;;;;10.40;4.70;;;;;;;2.94;100.00;102674.09;5165783;28;20029;-78
2021/04/17 01:33:43;;;;;;;12.75;4.45;;;;;;;2.90;100.00;102669.84;5166006;28;20076;-78
2021/04/17 01:36:15;;;;;;;11.55;4.18;;;;;;;2.95;100.00;102674.00;5165916;28;20026;-78
2021/04/17 01:38:50;;;;;;;10.88;4.13;;;;;;;2.85;100.00;102670.91;5165722;28;20396;-78
2021/04/17 01:41:28;;;;;;;11.50;4.22;;;;;;;2.88;100.00;102667.28;5165355;28;20102;-78
2021/04/17 01:44:03;;;;;;;11.43;4.35;;;;;;;2.81;100.00;102671.13;5164347;28;20038;-78
2021/04/17 01:46:42;;;;;;;11.68;4.25;;;;;;;2.75;100.00;102666.13;5165501;28;20045;-78
2021/04/17 01:49:14;;;;;;;17.60;6.00;;;;;;;2.72;100.00;102666.28;5165542;28;20373;-78
2021/04/17 01:51:46;;;;;;;12.48;4.32;;;;;;;2.70;100.00;102668.13;5165107;28;20054;-78
2021/04/17 01:54:22;;;;;;;16.95;5.00;;;;;;;2.63;100.00;102672.84;5165540;28;20027;-78
2021/04/17 01:56:58;;;;;;;12.15;4.65;;;;;;;2.67;100.00;102673.59;5165300;28;20050;-78
2021/04/17 01:59:33;;;;;;;13.47;5.00;;;;;;;2.65;100.00;102660.38;5165035;28;20106;-78
2021/04/17 02:02:04;;;;;;;12.65;5.00;;;;;;;2.56;100.00;102666.09;5164984;28;20325;-77
2021/04/17 02:04:36;;;;;;;14.10;4.85;;;;;;;2.59;100.00;102665.97;5165014;28;20061;-78
2021/04/17 02:07:06;;;;;;;13.40;5.07;;;;;;;2.57;100.00;102668.69;5164751;28;20109;-77
2021/04/17 02:09:37;;;;;;;13.82;4.93;;;;;;;2.46;100.00;102670.09;5164841;28;20133;-77
2021/04/17 02:12:08;;;;;;;12.30;4.65;;;;;;;2.47;100.00;102661.25;5165478;28;20033;-77
2021/04/17 02:14:39;;;;;;;13.68;5.10;;;;;;;2.46;100.00;102670.09;5164731;28;20033;-77
2021/04/17 02:17:16;;;;;;;12.43;4.95;;;;;;;2.42;100.00;102664.09;5165016;28;20022;-77
2021/04/17 02:19:56;;;;;;;11.00;4.72;;;;;;;2.44;100.00;102671.97;5163421;28;20256;-78
2021/04/17 02:22:27;;;;;;;12.57;4.85;;;;;;;2.47;100.00;102670.06;5163072;28;20033;-77
2021/04/17 02:24:58;;;;;;;13.48;5.50;;;;;;;2.49;100.00;102664.69;5164191;28;20022;-79
2021/04/17 02:27:29;;;;;;;12.73;5.53;;;;;;;2.42;100.00;102661.44;5157157;28;20026;-77
2021/04/17 02:30:00;;;;;;;14.30;4.85;;;;;;;2.36;100.00;102663.50;5164637;28;20073;-77
2021/04/17 02:32:31;;;;;;;13.02;5.30;;;;;;;2.31;100.00;102661.94;5164604;28;20030;-77
2021/04/17 02:35:02;;;;;;;13.07;5.72;;;;;;;2.29;100.00;102658.47;5165121;28;20506;-77
2021/04/17 02:37:32;;;;;;;11.80;4.75;;;;;;;2.27;100.00;102657.69;5164357;28;20044;-77
2021/04/17 02:40:03;;;;;;;20.83;4.65;;;;;;;2.25;100.00;102654.25;5164738;28;20031;-77
2021/04/17 02:42:34;;;;;;;11.00;5.15;;;;;;;2.25;100.00;102658.69;5164334;28;20555;-78
2021/04/17 02:45:05;;;;;;;14.38;5.50;;;;;;;2.19;100.00;102656.31;5164200;28;20105;-77
2021/04/17 02:47:36;;;;;;;18.65;5.22;;;;;;;2.13;100.00;102665.38;5164434;28;20472;-78
2021/04/17 02:50:07;;;;;;;14.45;5.03;;;;;;;2.11;100.00;102669.91;5164010;28;20022;-78
2021/04/17 02:52:37;;;;;;;18.15;5.47;;;;;;;2.05;100.00;102668.34;5164288;28;20431;-78
2021/04/17 02:55:09;;;;;;;16.42;5.57;;;;;;;1.96;100.00;102662.63;5164701;28;20029;-78
2021/04/17 02:57:39;;;;;;;14.43;5.45;;;;;;;1.92;100.00;102663.69;5164259;28;20109;-78
2021/04/17 03:00:12;;;;;;;18.58;5.80;;;;;;;1.87;100.00;102661.22;5162440;28;20113;-78
2021/04/17 03:02:43;;;;;;;13.32;6.32;;;;;;;1.84;100.00;102665.78;5164326;28;20057;-78
2021/04/17 03:05:14;;;;;;;17.35;6.30;;;;;;;1.78;100.00;102664.28;5162658;28;20103;-78
2021/04/17 03:07:45;;;;;;;13.45;5.63;;;;;;;1.78;100.00;102665.13;5163317;28;20042;-78
2021/04/17 03:10:17;;;;;;;16.08;5.82;;;;;;;1.80;100.00;102667.69;5164060;28;20109;-77
2021/04/17 03:12:47;;;;;;;19.08;5.88;;;;;;;1.76;100.00;102661.69;5163346;28;20026;-77
2021/04/17 03:15:18;;;;;;;17.58;5.78;;;;;;;1.71;100.00;102661.03;5164111;28;20019;-78
2021/04/17 03:17:48;;;;;;;12.98;5.28;;;;;;;1.67;100.00;102663.88;5163038;28;20026;-78
2021/04/17 03:20:19;;;;;;;17.67;5.88;;;;;;;1.73;100.00;102653.88;5164116;28;20037;-78
2021/04/17 03:22:50;;;;;;;12.73;5.75;;;;;;;1.77;100.00;102663.41;5163390;28;20022;-78
2021/04/17 03:25:20;;;;;;;11.88;5.10;;;;;;;1.72;100.00;102657.44;5163447;28;20076;-78
2021/04/17 03:27:51;;;;;;;22.17;5.93;;;;;;;1.69;100.00;102656.72;5158239;28;20054;-78
2021/04/17 03:30:27;;;;;;;13.18;5.50;;;;;;;1.68;100.00;102662.94;5163356;28;20029;-78
2021/04/17 03:33:00;;;;;;;16.65;5.90;;;;;;;1.70;100.00;102658.44;5163907;28;20087;-78
2021/04/17 03:35:32;;;;;;;20.65;7.10;;;;;;;1.72;100.00;102660.09;5163524;28;20053;-78
2021/04/17 03:38:03;;;;;;;17.77;6.00;;;;;;;1.70;100.00;102651.34;5163618;28;20030;-78
2021/04/17 03:40:33;;;;;;;15.13;5.57;;;;;;;1.62;100.00;102661.41;5163407;28;20043;-78
2021/04/17 03:43:04;;;;;;;15.80;5.90;;;;;;;1.59;100.00;102663.31;5163950;28;20105;-78
2021/04/17 03:45:34;;;;;;;28.05;7.03;;;;;;;1.57;100.00;102663.38;5163512;28;20507;-78
2021/04/17 03:48:06;;;;;;;18.77;6.10;;;;;;;1.57;100.00;102663.38;5162137;28;20056;-78
2021/04/17 03:50:37;;;;;;;16.42;6.30;;;;;;;1.54;100.00;102666.16;5150243;28;20071;-78
2021/04/17 03:53:07;;;;;;;17.38;6.50;;;;;;;1.47;100.00;102657.63;5163577;28;20030;-78
2021/04/17 03:55:38;;;;;;;15.30;7.40;;;;;;;1.57;100.00;102662.53;5164261;28;20035;-78
2021/04/17 03:58:08;;;;;;;22.65;6.53;;;;;;;1.55;100.00;102670.50;5163285;28;20042;-79
2021/04/17 04:00:39;;;;;;;14.68;6.22;;;;;;;1.46;100.00;102668.28;5162868;28;20395;-78
2021/04/17 04:03:09;;;;;;;22.23;6.93;;;;;;;1.46;100.00;102671.78;5162286;28;20037;-78
2021/04/17 04:05:40;;;;;;;16.05;6.75;;;;;;;1.36;100.00;102670.44;5163353;28;20485;-78
2021/04/17 04:08:11;;;;;;;18.13;6.95;;;;;;;1.32;100.00;102667.97;5163132;28;20388;-78
2021/04/17 04:10:41;;;;;;;19.15;6.97;;;;;;;1.28;100.00;102668.09;5162988;28;20418;-78
2021/04/17 04:13:11;;;;;;;17.42;6.50;;;;;;;1.25;100.00;102664.69;5162703;28;20493;-78
2021/04/17 04:15:42;;;;;;;18.15;6.82;;;;;;;1.21;100.00;102671.03;5163506;28;20034;-78
2021/04/17 04:18:12;;;;;;;17.38;7.38;;;;;;;1.19;100.00;102668.44;5163103;28;20023;-78
2021/04/17 04:20:43;;;;;;;20.92;6.97;;;;;;;1.17;100.00;102672.94;5162815;28;20070;-78
2021/04/17 04:23:13;;;;;;;22.85;7.60;;;;;;;1.20;100.00;102675.44;5161735;28;20023;-78
2021/04/17 04:25:44;;;;;;;19.48;6.25;;;;;;;1.21;100.00;102679.84;5162824;28;20464;-78
2021/04/17 04:28:14;;;;;;;19.27;6.75;;;;;;;1.23;100.00;102680.63;5157529;28;20026;-78
2021/04/17 04:30:46;;;;;;;19.15;7.18;;;;;;;1.17;100.00;102677.38;5166572;28;20377;-78
2021/04/17 04:33:16;;;;;;;18.33;7.30;;;;;;;1.13;100.00;102681.91;5167112;28;20034;-77
2021/04/17 04:35:49;;;;;;;17.88;7.45;;;;;;;1.13;100.00;102678.41;5166923;28;20132;-77
2021/04/17 04:38:19;;;;;;;18.65;7.35;;;;;;;1.10;100.00;102683.81;5166900;28;20364;-78
2021/04/17 04:40:49;;;;;;;18.67;7.50;;;;;;;1.09;100.00;102679.44;5166589;28;20073;-78
2021/04/17 04:43:20;;;;;;;20.02;7.68;;;;;;;1.07;100.00;102695.38;5167231;28;20479;-78
2021/04/17 04:45:51;;;;;;;19.77;6.97;;;;;;;1.02;100.00;102687.63;5165774;28;20034;-78
2021/04/17 04:48:21;;;;;;;16.15;7.43;;;;;;;1.01;100.00;102693.84;5167197;28;20045;-78
2021/04/17 04:50:51;;;;;;;23.58;8.25;;;;;;;1.07;100.00;102692.72;5166402;28;20030;-78
2021/04/17 04:53:22;;;;;;;24.05;6.97;;;;;;;1.11;100.00;102691.69;5166347;28;20084;-78
2021/04/17 04:55:52;;;;;;;21.88;7.35;;;;;;;1.09;100.00;102693.53;5168118;28;20018;-79
2021/04/17 04:58:23;;;;;;;18.63;7.05;;;;;;;1.07;100.00;102692.72;5174824;28;20023;-78
2021/04/17 05:00:54;;;;;;;15.38;6.07;;;;;;;1.10;100.00;102695.25;5173451;28;20085;-78
2021/04/17 05:03:25;;;;;;;18.75;6.90;;;;;;;1.10;100.00;102700.53;5167847;28;20157;-79
2021/04/17 05:05:55;;;;;;;21.00;7.25;;;;;;;1.11;100.00;102701.41;5166488;28;20113;-77
2021/04/17 05:08:25;;;;;;;21.70;7.00;;;;;;;1.14;100.00;102706.56;5166466;28;20026;-78
2021/04/17 05:10:56;;;;;;;21.80;6.95;;;;;;;1.20;100.00;102707.19;5166012;28;20037;-77
2021/04/17 05:13:26;;;;;;;14.73;7.03;;;;;;;1.26;100.00;102701.66;5166203;28;20023;-79
2021/04/17 05:15:57;;;;;;;21.40;6.85;;;;;;;1.33;100.00;102702.28;5166542;28;20037;-79
2021/04/17 05:18:27;;;;;;;19.55;6.63;;;;;;;1.39;100.00;102709.97;5165158;28;20028;-78
2021/04/17 05:20:58;;;;;;;22.38;7.13;;;;;;;1.43;100.00;102705.41;5166220;28;20029;-78
2021/04/17 05:23:28;;;;;;;22.50;7.38;;;;;;;1.66;100.00;102709.78;5165861;28;20040;-78
2021/04/17 05:25:59;;;;;;;15.88;6.35;;;;;;;2.38;100.00;102706.69;5164375;28;20027;-78
2021/04/17 05:28:29;;;;;;;19.08;6.85;;;;;;;3.38;100.00;102704.66;5160958;28;20022;-79
2021/04/17 05:31:00;;;;;;;14.50;6.22;;;;;;;4.21;100.00;102708.44;5167024;28;20136;-79
2021/04/17 05:33:30;;;;;;;13.95;7.47;;;;;;;4.61;100.00;102701.00;5168557;28;20038;-79
2021/04/17 05:36:01;;;;;;;16.23;6.45;;;;;;;4.93;100.00;102704.59;5168896;28;20479;-79
2021/04/17 05:38:32;;;;;;;16.33;5.25;;;;;;;5.35;100.00;102706.66;5168909;28;20033;-79
2021/04/17 05:41:03;;;;;;;15.07;6.05;;;;;;;6.05;100.00;102706.19;5169140;28;20030;-79
2021/04/17 05:43:33;;;;;;;10.70;5.03;;;;;;;6.60;100.00;102706.34;5169274;28;20046;-81
2021/04/17 05:46:04;;;;;;;11.63;5.32;;;;;;;7.28;100.00;102700.28;5169813;28;20029;-79
2021/04/17 05:48:34;;;;;;;11.50;5.70;;;;;;;7.39;100.00;102704.91;5166490;28;20080;-79
2021/04/17 05:51:05;;;;;;;14.40;5.55;;;;;;;7.73;100.00;102707.06;5167447;28;20026;-79
2021/04/17 05:53:35;;;;;;;11.52;5.55;;;;;;;7.71;100.00;102708.13;5168588;28;20038;-80
2021/04/17 05:56:08;;;;;;;12.43;5.80;;;;;;;7.27;100.00;102701.22;5166210;28;20018;-79
2021/04/17 05:58:38;;;;;;;11.88;5.10;;;;;;;7.10;100.00;102704.97;5165088;28;20026;-78
2021/04/17 06:01:09;;;;;;;12.20;5.90;;;;;;;6.53;100.00;102694.38;5167466;28;20085;-79
2021/04/17 06:03:39;;;;;;;14.90;5.50;;;;;;;5.94;100.00;102697.03;5165182;28;20101;-77
2021/04/17 06:06:09;;;;;;;19.75;5.65;;;;;;;5.52;100.00;102702.16;5165843;28;20069;-79
2021/04/17 06:08:40;;;;;;;12.43;5.75;;;;;;;5.19;100.00;102703.16;5167608;28;20502;-79
2021/04/17 06:11:11;;;;;;;15.73;5.55;;;;;;;4.83;100.00;102698.94;5165583;28;20400;-79
2021/04/17 06:13:41;;;;;;;14.90;5.10;;;;;;;4.52;100.00;102698.84;5166542;28;20034;-79
2021/04/17 06:16:12;;;;;;;13.95;5.63;;;;;;;4.20;100.00;102698.75;5165000;28;20081;-80
2021/04/17 06:18:42;;;;;;;14.30;5.75;;;;;;;4.03;100.00;102696.13;5165883;28;20030;-79
2021/04/17 06:21:13;;;;;;;15.65;5.72;;;;;;;3.93;100.00;102697.53;5166404;28;20333;-79
2021/04/17 06:23:43;;;;;;;16.75;6.25;;;;;;;3.93;100.00;102695.72;5164973;28;20499;-78
2021/04/17 06:26:14;;;;;;;17.60;6.20;;;;;;;3.95;100.00;102700.94;5158496;28;20034;-80
2021/04/17 06:28:44;;;;;;;16.60;6.15;;;;;;;4.02;100.00;102694.41;5157618;28;20035;-78
2021/04/17 06:31:15;;;;;;;19.25;6.55;;;;;;;4.02;100.00;102692.63;5165376;28;20488;-79
2021/04/17 06:33:45;;;;;;;17.50;5.63;;;;;;;4.05;100.00;102692.44;5165373;28;20141;-78
2021/04/17 06:36:16;;;;;;;16.90;5.57;;;;;;;4.09;100.00;102691.34;5164041;28;20030;-78
2021/04/17 06:38:46;;;;;;;14.77;5.43;;;;;;;4.17;100.00;102701.59;5165810;28;20042;-79
2021/04/17 06:41:20;;;;;;;16.88;5.63;;;;;;;4.30;100.00;102700.00;5168230;28;20449;-79
2021/04/17 06:43:51;;;;;;;18.40;6.25;;;;;;;4.38;100.00;102700.47;5164944;28;20037;-79
2021/04/17 06:46:24;;;;;;;16.63;6.40;;;;;;;4.48;100.00;102698.16;5164871;28;20034;-79
2021/04/17 06:48:54;;;;;;;12.38;5.45;;;;;;;4.54;100.00;102692.53;5166364;28;20041;-78
2021/04/17 06:51:25;;;;;;;11.50;4.47;;;;;;;4.57;100.00;102696.84;5165207;28;20621;-79
2021/04/17 06:53:56;;;;;;;14.07;5.28;;;;;;;4.65;100.00;102702.56;5172164;28;20484;-80
2021/04/17 06:56:27;;;;;;;13.48;6.13;;;;;;;4.78;100.00;102702.78;5168510;28;20018;-80
2021/04/17 06:58:57;;;;;;;11.43;5.05;;;;;;;4.93;100.00;102704.59;5165485;28;20056;-79
2021/04/17 07:01:30;;;;;;;19.88;6.43;;;;;;;5.04;100.00;102704.00;5165951;28;20061;-78
2021/04/17 07:04:00;;;;;;;13.30;5.32;;;;;;;5.17;100.00;102705.91;5168476;28;20019;-79
2021/04/17 07:06:31;;;;;;;13.13;4.90;;;;;;;5.27;100.00;102718.66;5170706;28;20076;-79
2021/04/17 07:09:04;;;;;;;14.55;5.78;;;;;;;5.37;100.00;102719.88;5168604;28;20030;-79
2021/04/17 07:11:35;;;;;;;10.82;5.00;;;;;;;5.40;100.00;102709.91;5166434;28;20022;-79
2021/04/17 07:14:14;;;;;;;17.45;5.47;;;;;;;5.52;100.00;102713.66;5165727;28;20045;-81
2021/04/17 07:17:00;;;;;;;13.25;5.15;;;;;;;5.62;100.00;102711.34;5155353;28;20022;-79
2021/04/17 07:19:43;;;;;;;11.35;5.05;;;;;;;5.71;100.00;102716.13;5164864;28;20034;-79
2021/04/17 07:22:17;;;;;;;13.23;5.32;;;;;;;5.87;100.00;102721.41;5172965;28;20026;-80
2021/04/17 07:24:50;;;;;;;14.20;5.18;;;;;;;5.97;100.00;102718.19;5169916;28;20117;-80
2021/04/17 07:27:37;;;;;;;13.05;4.28;;;;;;;6.04;100.00;102716.00;5162391;28;20029;-78
2021/04/17 07:30:14;;;;;;;15.55;5.65;;;;;;;6.23;100.00;102715.75;5166703;28;20119;-79
2021/04/17 07:32:47;;;;;;;11.90;4.07;;;;;;;6.39;100.00;102711.22;5166920;28;20076;-79
2021/04/17 07:35:20;;;;;;;17.45;5.65;;;;;;;6.48;100.00;102718.66;5163677;28;20109;-80
2021/04/17 07:38:09;;;;;;;20.58;5.60;;;;;;;6.57;100.00;102709.22;5165448;28;20109;-78
2021/04/17 07:40:41;;;;;;;15.57;5.47;;;;;;;6.67;100.00;102713.00;5165668;28;20029;-79
2021/04/17 07:43:17;;;;;;;12.07;4.82;;;;;;;6.78;100.00;102704.38;5166915;28;20518;-80
2021/04/17 07:45:47;;;;;;;11.55;4.75;;;;;;;6.87;100.00;102702.91;5171772;28;20049;-79
2021/04/17 07:48:22;;;;;;;13.07;4.72;;;;;;;7.06;100.00;102710.63;5171103;28;20034;-80
2021/04/17 07:50:54;;;;;;;13.23;4.07;;;;;;;7.18;100.00;102710.69;5174052;28;20034;-80
2021/04/17 07:53:40;;;;;;;10.05;3.97;;;;;;;7.31;100.00;102705.41;5171311;28;20080;-79
2021/04/17 07:56:33;;;;;;;13.07;4.50;;;;;;;7.41;100.00;102703.00;5175588;28;20113;-81
2021/04/17 07:59:05;;;;;;;24.23;5.07;;;;;;;7.40;100.00;102702.13;5174682;28;20030;-80
2021/04/17 08:01:36;;;;;;;11.88;3.95;;;;;;;7.50;100.00;102694.38;5174224;28;20027;-80
2021/04/17 08:04:07;;;;;;;11.02;4.30;;;;;;;7.50;100.00;102699.72;5175674;28;20053;-81
2021/04/17 08:06:38;;;;;;;14.18;4.85;;;;;;;7.65;100.00;102698.69;5175392;28;20026;-79
2021/04/17 08:09:10;;;;;;;9.13;4.45;;;;;;;7.84;100.00;102690.31;5177216;28;20026;-80
2021/04/17 08:11:43;;;;;;;12.27;4.38;;;;;;;7.98;100.00;102692.91;5164857;28;20113;-80
2021/04/17 08:14:14;;;;;;;13.90;5.57;;;;;;;7.98;100.00;102687.56;5175988;28;20025;-81
2021/04/17 08:16:45;;;;;;;12.75;4.97;;;;;;;8.11;100.00;102692.91;5175426;28;20407;-82
2021/04/17 08:19:16;;;;;;;12.07;4.60;;;;;;;8.14;100.00;102700.75;5174560;28;20041;-78
2021/04/17 08:21:50;;;;;;;16.73;4.78;;;;;;;8.34;100.00;102695.84;5167102;28;20026;-79
2021/04/17 08:24:24;;;;;;;13.55;4.13;;;;;;;8.59;100.00;102700.34;5166996;28;20030;-80
2021/04/17 08:26:58;;;;;;;13.15;4.38;;;;;;;8.73;100.00;102702.88;5171487;28;20023;-80
2021/04/17 08:29:55;;;;;;;15.45;4.15;;;;;;;8.80;95.16;102693.47;5165533;28;20332;-78
2021/04/17 08:32:29;;;;;;;11.43;3.88;;;;;;;8.89;100.00;102695.50;5167535;28;20080;-80
2021/04/17 08:35:07;;;;;;;7.80;3.40;;;;;;;8.88;100.00;102688.41;5167234;28;20045;-78
2021/04/17 08:37:51;;;;;;;9.73;3.85;;;;;;;9.01;97.03;102691.91;5166898;28;20027;-78
2021/04/17 08:40:37;;;;;;;9.45;4.15;;;;;;;9.15;89.74;102690.06;5165677;28;20105;-79
2021/04/17 08:43:08;;;;;;;;;;;;;;;9.30;91.61;102694.31;5166777;28;20438;-79
2021/04/17 08:45:57;;;;;;;9.95;4.20;;;;;;;9.45;93.10;102693.16;5170921;28;19921;-79
2021/04/17 08:48:49;;;;;;;8.95;3.78;;;;;;;9.56;96.12;102695.03;5168833;28;20086;-78
2021/04/17 08:51:20;;;;;;;10.05;3.65;;;;;;;9.66;91.09;102700.56;5167494;28;20041;-79
2021/04/17 08:54:12;;;;;;;11.13;3.80;;;;;;;9.76;87.12;102696.22;5166519;28;20034;-80
2021/04/17 08:56:46;;;;;;;11.73;4.35;;;;;;;9.91;79.73;102695.06;5178077;28;20377;-82
2021/04/17 08:59:21;;;;;;;11.35;3.80;;;;;;;9.94;78.94;102689.47;5180358;28;20026;-81
2021/04/17 09:01:54;;;;;;;8.87;3.70;;;;;;;10.15;89.04;102684.28;5174991;28;20022;-83
2021/04/17 09:04:26;;;;;;;13.50;3.58;;;;;;;10.15;75.00;102688.81;5176767;28;20750;-82
2021/04/17 09:06:57;;;;;;;8.50;3.35;;;;;;;10.21;75.09;102685.63;5181837;28;20086;-80
2021/04/17 09:09:30;;;;;;;5.75;3.20;;;;;;;10.28;69.10;102682.38;5181828;28;20033;-81
2021/04/17 09:12:02;;;;;;;13.32;3.30;;;;;;;10.36;68.42;102685.31;5156148;28;20106;-81
2021/04/17 09:14:33;;;;;;;8.77;4.00;;;;;;;10.44;68.84;102679.38;5179535;28;20030;-81
2021/04/17 09:17:06;;;;;;;7.28;3.22;;;;;;;10.47;68.99;102684.47;5179957;28;20094;-80
2021/04/17 09:19:38;;;;;;;8.43;3.55;;;;;;;10.59;66.87;102678.16;5195653;28;20022;-80
2021/04/17 09:22:24;;;;;;;9.98;3.05;;;;;;;10.70;70.27;102671.94;5177884;28;20034;-81
2021/04/17 09:25:04;;;;;;;7.28;3.25;;;;;;;10.70;60.58;102679.13;5157714;28;20117;-78
2021/04/17 09:27:38;;;;;;;7.50;3.42;;;;;;;10.83;66.35;102679.84;5166478;28;20401;-78
2021/04/17 09:30:11;;;;;;;8.13;3.20;;;;;;;11.01;68.01;102682.88;5169931;28;20034;-80
2021/04/17 09:32:44;;;;;;;7.43;3.58;;;;;;;10.98;58.48;102677.75;5173923;28;20027;-79
2021/04/17 09:35:24;;;;;;;10.70;3.20;;;;;;;10.87;61.11;102679.47;5174599;28;20073;-81
2021/04/17 09:37:54;;;;;;;14.98;3.70;;;;;;;11.00;61.29;102673.13;5173641;28;20387;-80
2021/04/17 09:40:33;;;;;;;7.85;3.28;;;;;;;11.26;59.28;102673.66;5175536;28;20050;-79
2021/04/17 09:43:06;;;;;;;6.80;3.70;;;;;;;11.21;58.97;102667.81;5175748;28;20462;-78
2021/04/17 09:45:39;;;;;;;8.60;3.05;;;;;;;11.36;58.19;102666.56;5175977;28;20089;-80
2021/04/17 09:48:10;;;;;;;7.18;3.65;;;;;;;11.48;59.86;102668.22;5176788;28;20022;-80
2021/04/17 09:50:40;;;;;;;11.63;2.95;;;;;;;11.52;57.93;102658.91;5187639;28;20037;-79
2021/04/17 09:53:21;;;;;;;8.57;3.25;;;;;;;11.64;59.46;102662.41;5169857;28;20058;-79
2021/04/17 09:56:01;;;;;;;5.03;2.75;;;;;;;11.77;56.25;102659.53;5174597;28;20033;-80
2021/04/17 09:58:36;;;;;;;7.35;2.50;;;;;;;11.63;51.45;102653.47;5174026;28;20058;-80
2021/04/17 10:01:11;;;;;;;36.28;4.53;;;;;;;11.40;55.10;102646.50;5178327;28;20037;-80
2021/04/17 10:03:49;;;;;;;9.77;2.92;;;;;;;11.36;55.91;102645.06;5166203;28;20451;-81
2021/04/17 10:06:29;;;;;;;5.88;2.70;;;;;;;11.37;59.50;102641.38;5180498;28;20034;-80
2021/04/17 10:09:06;;;;;;;6.82;2.60;;;;;;;11.48;55.86;102637.78;5178191;28;20034;-80
2021/04/17 10:11:39;;;;;;;8.07;2.72;;;;;;;12.02;55.56;102632.28;5175493;28;20030;-79
2021/04/17 10:14:12;;;;;;;6.97;2.90;;;;;;;12.17;52.45;102625.56;5179490;28;20029;-80
2021/04/17 10:16:48;;;;;;;4.55;2.67;;;;;;;12.35;53.54;102619.56;5179317;28;20046;-80
2021/04/17 10:19:20;;;;;;;5.00;2.80;;;;;;;12.67;55.65;102627.50;5175249;28;20472;-81
2021/04/17 10:21:59;;;;;;;19.20;3.53;;;;;;;12.72;50.41;102619.00;5172824;28;20026;-80
2021/04/17 10:24:32;;;;;;;7.15;2.92;;;;;;;12.88;50.29;102624.72;5177748;28;20026;-80
2021/04/17 10:27:06;;;;;;;6.20;2.78;;;;;;;12.84;47.08;102607.97;5167908;28;20419;-80
2021/04/17 10:29:43;;;;;;;9.57;2.80;;;;;;;12.99;52.83;102608.41;5166176;28;20030;-79
2021/04/17 10:32:20;;;;;;;8.82;2.88;;;;;;;12.44;46.83;102590.00;5177954;28;20026;-81
2021/04/17 10:35:04;;;;;;;11.20;3.15;;;;;;;11.91;49.58;102602.78;5178162;28;20165;-79
2021/04/17 10:37:43;;;;;;;7.93;3.45;;;;;;;12.11;53.79;102598.34;5149146;28;20296;-79
2021/04/17 10:40:18;;;;;;;11.23;3.25;;;;;;;12.36;54.57;102595.22;5165029;28;20046;-79
2021/04/17 10:43:05;;;;;;;7.65;3.40;;;;;;;12.07;47.76;102599.59;5168424;28;20038;-80
2021/04/17 10:45:35;;;;;;;8.02;3.70;;;;;;;11.83;48.92;102589.97;5164586;28;20026;-79
2021/04/17 10:48:09;;;;;;;6.07;3.40;;;;;;;11.59;48.11;102586.66;5164656;28;20549;-77
2021/04/17 10:50:44;;;;;;;5.60;3.53;;;;;;;11.77;49.59;102576.19;5164417;28;20022;-77
2021/04/17 10:53:15;;;;;;;5.80;3.10;;;;;;;12.15;52.38;102576.44;5169748;28;20022;-80
2021/04/17 10:55:47;;;;;;;7.43;3.40;;;;;;;12.59;52.10;102582.38;5162904;28;20022;-80
2021/04/17 10:58:21;;;;;;;6.57;3.15;;;;;;;12.73;49.59;102574.91;5169575;28;20026;-79
2021/04/17 11:01:02;;;;;;;6.20;3.00;;;;;;;12.82;51.87;102571.41;5151215;28;20034;-82
2021/04/17 11:03:47;;;;;;;7.30;2.85;;;;;;;13.25;48.45;102571.03;5154291;28;20447;-82
2021/04/17 11:06:22;;;;;;;9.00;3.17;;;;;;;12.88;46.68;102576.22;5175529;28;20027;-83
2021/04/17 11:09:05;;;;;;;14.87;2.93;;;;;;;12.66;48.70;102572.78;5172916;28;20022;-80
2021/04/17 11:11:36;;;;;;;5.47;3.05;;;;;;;12.65;48.95;102568.41;5170054;28;20090;-82
2021/04/17 11:14:06;;;;;;;10.40;3.10;;;;;;;12.44;48.76;102564.91;5169595;28;20057;-81
2021/04/17 11:16:41;;;;;;;7.15;3.63;;;;;;;11.89;49.05;102564.38;5169265;28;20019;-82
2021/04/17 11:19:27;;;;;;;6.28;3.35;;;;;;;11.92;50.56;102561.44;5171143;28;20030;-80
2021/04/17 11:22:04;;;;;;;;;;;;;;;11.90;52.78;102552.66;5167201;28;20484;-84
2021/04/17 11:24:37;;;;;;;12.10;4.45;;;;;;;11.91;51.26;102560.59;5167442;28;19917;-84
2021/04/17 11:27:08;;;;;;;7.20;3.53;;;;;;;12.35;49.95;102554.97;5145932;28;20038;-83
2021/04/17 11:29:38;;;;;;;6.32;3.08;;;;;;;12.72;50.06;102552.53;5169178;28;20365;-83
2021/04/17 11:32:09;;;;;;;7.30;2.95;;;;;;;12.83;49.56;102549.72;5168944;28;20038;-83
2021/04/17 11:34:44;;;;;;;5.93;2.97;;;;;;;12.84;47.73;102547.88;5170999;28;20029;-82
2021/04/17 11:37:15;;;;;;;4.85;2.92;;;;;;;12.58;48.09;102548.38;5170444;28;20053;-82
2021/04/17 11:39:46;;;;;;;8.82;3.53;;;;;;;12.45;49.33;102553.19;5169750;28;20030;-82
2021/04/17 11:42:17;;;;;;;7.70;2.90;;;;;;;12.09;48.11;102547.34;5169957;28;20041;-81
2021/04/17 11:44:47;;;;;;;7.47;2.88;;;;;;;11.96;47.03;102541.38;5170240;28;20026;-82
2021/04/17 11:47:18;;;;;;;10.02;2.53;;;;;;;12.20;48.31;102535.69;5168669;28;20033;-81